Time;durP1;ratioP1;P1;durP2;ratioP2;P2;SDS_P1;SDS_P2;PMS_P1;PMS_P2;Temp;Humidity;BMP_temperature;BMP_pressure;BME280_temperature;BME280_humidity;BME280_pressure;Samples;Min_cycle;Max_cycle;Signal;HPM_P1;HPM_P2
2023/07/31 00:01:34;;;;;;;10.23;3.88;;;15.50;90.30;;;;;;5073380;28;20036;-46
2023/07/31 00:04:01;;;;;;;12.15;3.45;;;15.60;90.50;;;;;;5072775;28;20330;-49
2023/07/31 00:06:28;;;;;;;12.02;4.13;;;15.50;90.40;;;;;;5072043;28;20628;-46
2023/07/31 00:08:54;;;;;;;8.90;4.13;;;15.60;90.50;;;;;;5072782;28;20492;-47
2023/07/31 00:11:21;;;;;;;12.23;4.50;;;15.60;90.50;;;;;;5072109;28;20090;-46
2023/07/31 00:13:48;;;;;;;12.93;5.07;;;15.50;90.60;;;;;;5072685;28;20514;-46
2023/07/31 00:16:15;;;;;;;11.10;4.97;;;15.50;90.70;;;;;;5037600;28;20346;-46
2023/07/31 00:18:43;;;;;;;10.68;4.53;;;15.60;90.80;;;;;;5072703;28;20016;-46
2023/07/31 00:21:10;;;;;;;11.13;4.05;;;15.60;90.80;;;;;;5072467;28;20029;-46
2023/07/31 00:23:36;;;;;;;10.75;4.40;;;15.50;90.80;;;;;;5054778;28;20461;-46
2023/07/31 00:26:04;;;;;;;10.60;5.10;;;15.50;91.00;;;;;;5071859;28;20033;-46
2023/07/31 00:28:31;;;;;;;8.88;4.07;;;15.50;91.00;;;;;;5072374;28;20103;-46
2023/07/31 00:30:58;;;;;;;11.65;4.40;;;15.60;91.10;;;;;;5072715;28;20419;-46
2023/07/31 00:33:25;;;;;;;9.15;4.45;;;15.50;91.10;;;;;;5071625;28;20053;-46
2023/07/31 00:35:51;;;;;;;9.70;4.00;;;15.60;91.20;;;;;;5054702;28;20025;-46
2023/07/31 00:38:16;;;;;;;9.55;4.38;;;15.60;91.20;;;;;;5073038;28;20028;-46
2023/07/31 00:40:44;;;;;;;9.07;4.07;;;15.60;91.20;;;;;;5054819;28;20038;-46
2023/07/31 00:43:10;;;;;;;7.68;4.57;;;15.60;91.20;;;;;;5072032;28;20028;-46
2023/07/31 00:45:38;;;;;;;12.43;5.20;;;15.60;91.20;;;;;;5073221;28;20024;-46
2023/07/31 00:48:08;;;;;;;9.98;4.70;;;15.60;91.40;;;;;;5072273;28;20024;-46
2023/07/31 00:50:34;;;;;;;;;;;15.60;91.30;;;;;;5055721;28;20036;-46
2023/07/31 00:53:01;;;;;;;10.15;4.72;;;15.60;91.40;;;;;;5072989;28;19957;-47
2023/07/31 00:55:29;;;;;;;12.85;5.47;;;15.60;91.50;;;;;;5072124;28;20036;-48
2023/07/31 00:57:56;;;;;;;12.38;5.20;;;15.50;91.50;;;;;;5072837;28;20029;-46
2023/07/31 01:00:23;;;;;;;13.05;5.93;;;15.50;91.60;;;;;;5073060;28;20032;-46
2023/07/31 01:02:53;;;;;;;8.70;4.97;;;15.50;91.60;;;;;;5072075;28;20113;-46
2023/07/31 01:05:42;;;;;;;11.48;5.10;;;15.50;91.80;;;;;;5072699;28;20364;-46
2023/07/31 01:08:23;;;;;;;13.20;5.72;;;15.50;91.90;;;;;;5072817;28;20085;-46
2023/07/31 01:11:07;;;;;;;11.27;5.53;;;15.60;92.00;;;;;;5072083;28;20028;-46
2023/07/31 01:13:34;;;;;;;11.32;5.60;;;15.60;91.90;;;;;;5072550;28;20110;-47
2023/07/31 01:16:01;;;;;;;9.68;5.57;;;15.50;92.00;;;;;;5055213;28;20112;-48
2023/07/31 01:18:27;;;;;;;8.27;5.55;;;15.50;92.00;;;;;;5061425;28;20334;-47
2023/07/31 01:21:32;;;;;;;10.32;4.85;;;15.60;92.00;;;;;;5075596;28;20035;-46
2023/07/31 01:24:21;;;;;;;7.10;4.78;;;15.60;92.10;;;;;;5020831;28;20098;-45
2023/07/31 01:27:09;;;;;;;10.93;5.85;;;15.60;92.10;;;;;;5076147;28;20048;-49
2023/07/31 01:30:00;;;;;;;9.60;5.38;;;15.60;92.20;;;;;;5056269;28;20036;-47
2023/07/31 01:32:30;;;;;;;7.28;5.20;;;15.60;92.00;;;;;;5045261;28;20460;-46
2023/07/31 01:35:01;;;;;;;7.65;4.57;;;15.60;92.00;;;;;;5065037;28;20032;-46
2023/07/31 01:37:30;;;;;;;6.30;4.88;;;15.70;92.10;;;;;;5075844;28;20024;-46
2023/07/31 01:39:57;;;;;;;9.18;4.43;;;15.70;92.10;;;;;;5075395;28;20111;-46
2023/07/31 01:42:24;;;;;;;6.82;4.28;;;15.70;92.10;;;;;;5075646;28;20133;-46
2023/07/31 01:44:51;;;;;;;7.13;5.20;;;15.70;92.00;;;;;;5075341;28;20193;-46
2023/07/31 01:47:18;;;;;;;6.45;3.55;;;15.70;91.90;;;;;;5075157;28;20024;-46
2023/07/31 01:49:43;;;;;;;6.35;3.75;;;15.70;91.90;;;;;;5058303;28;20029;-46
2023/07/31 01:52:09;;;;;;;6.00;3.92;;;15.70;91.80;;;;;;5057968;28;20029;-47
2023/07/31 01:54:36;;;;;;;6.65;3.65;;;15.70;91.70;;;;;;5058087;28;20031;-46
2023/07/31 01:57:03;;;;;;;8.20;3.90;;;15.70;91.60;;;;;;5074952;28;20033;-46
2023/07/31 01:59:30;;;;;;;8.45;3.80;;;15.60;91.50;;;;;;5075770;28;20025;-47
2023/07/31 02:01:58;;;;;;;6.45;2.97;;;15.70;91.50;;;;;;5075347;28;20111;-46
2023/07/31 02:04:24;;;;;;;5.80;3.23;;;15.60;91.50;;;;;;5075711;28;20024;-48
2023/07/31 02:06:52;;;;;;;5.75;3.03;;;15.70;91.30;;;;;;5074758;28;20050;-46
2023/07/31 02:09:19;;;;;;;4.32;3.00;;;15.70;91.30;;;;;;5075426;28;20025;-46
2023/07/31 02:11:46;;;;;;;4.82;2.80;;;15.60;91.30;;;;;;5075242;28;20471;-46
2023/07/31 02:14:13;;;;;;;4.68;3.03;;;15.70;91.20;;;;;;5075091;28;20111;-46
2023/07/31 02:16:42;;;;;;;7.30;3.75;;;15.60;91.20;;;;;;5071928;28;20032;-46
2023/07/31 02:19:08;;;;;;;5.03;3.45;;;15.60;91.30;;;;;;5075175;28;20039;-46
2023/07/31 02:21:37;;;;;;;5.43;2.85;;;15.60;91.40;;;;;;5074099;28;20020;-46
2023/07/31 02:24:03;;;;;;;5.70;2.97;;;15.60;91.40;;;;;;5075222;28;20036;-46
2023/07/31 02:26:30;;;;;;;7.32;2.83;;;15.60;91.40;;;;;;5074932;28;20036;-48
2023/07/31 02:28:56;;;;;;;5.38;3.00;;;15.60;91.40;;;;;;5073338;28;20035;-48
2023/07/31 02:31:27;;;;;;;6.22;2.85;;;15.60;91.50;;;;;;5057565;28;20028;-48
2023/07/31 02:33:54;;;;;;;7.38;3.80;;;15.60;91.50;;;;;;5075154;28;20470;-46
2023/07/31 02:36:20;;;;;;;5.07;3.05;;;15.60;91.40;;;;;;5074128;28;20082;-47
2023/07/31 02:38:47;;;;;;;5.03;3.22;;;15.60;91.60;;;;;;5074974;28;20025;-47
2023/07/31 02:41:14;;;;;;;4.05;2.30;;;15.60;91.60;;;;;;5074651;28;20029;-47
2023/07/31 02:43:40;;;;;;;7.85;3.05;;;15.60;91.70;;;;;;5073942;28;20020;-46
2023/07/31 02:46:10;;;;;;;5.35;2.80;;;15.60;91.60;;;;;;5074676;28;20437;-47
2023/07/31 02:48:37;;;;;;;;;;;15.60;91.50;;;;;;5057556;28;20428;-46
2023/07/31 02:51:03;;;;;;;4.25;2.35;;;15.60;91.60;;;;;;5073923;28;20240;-47
2023/07/31 02:53:30;;;;;;;5.03;2.78;;;15.60;91.50;;;;;;5074495;28;20050;-46
2023/07/31 02:55:55;;;;;;;3.80;2.38;;;15.60;91.60;;;;;;5073844;28;20042;-46
2023/07/31 02:58:22;;;;;;;5.85;2.40;;;15.60;91.60;;;;;;5073623;28;20032;-46
2023/07/31 03:00:49;;;;;;;3.92;2.30;;;15.60;91.70;;;;;;5074475;28;20060;-46
2023/07/31 03:03:16;;;;;;;2.95;2.00;;;15.60;91.70;;;;;;5074610;28;20457;-46
2023/07/31 03:05:41;;;;;;;4.13;2.05;;;15.60;91.80;;;;;;5073721;28;20059;-46
2023/07/31 03:08:08;;;;;;;4.40;2.10;;;15.60;91.80;;;;;;5074078;28;20063;-46
2023/07/31 03:10:35;;;;;;;4.40;1.90;;;15.60;91.90;;;;;;5074288;28;20033;-46
2023/07/31 03:13:07;;;;;;;3.67;2.15;;;15.60;92.00;;;;;;5073453;28;20036;-46
2023/07/31 03:15:36;;;;;;;3.50;2.10;;;15.60;92.00;;;;;;5074076;28;20147;-46
2023/07/31 03:18:05;;;;;;;3.37;1.97;;;15.60;92.00;;;;;;5073483;28;20037;-46
2023/07/31 03:20:32;;;;;;;2.75;1.55;;;15.60;92.00;;;;;;5074068;28;20039;-47
2023/07/31 03:22:59;;;;;;;5.30;1.98;;;15.60;92.00;;;;;;5073502;28;20180;-46
2023/07/31 03:25:26;;;;;;;3.78;1.50;;;15.60;92.10;;;;;;5073753;28;20047;-46
2023/07/31 03:27:55;;;;;;;2.70;1.60;;;15.50;92.30;;;;;;5073128;28;20449;-45
2023/07/31 03:30:25;;;;;;;2.83;1.60;;;15.60;92.30;;;;;;5054092;28;20036;-46
2023/07/31 03:32:50;;;;;;;3.47;1.75;;;15.60;92.30;;;;;;5053698;28;20068;-47
2023/07/31 03:35:17;;;;;;;2.80;1.45;;;15.50;92.40;;;;;;5053716;28;20072;-46
2023/07/31 03:37:44;;;;;;;4.97;1.50;;;15.50;92.50;;;;;;5062260;28;20719;-48
2023/07/31 03:40:14;;;;;;;3.90;1.60;;;15.50;92.60;;;;;;5073425;28;20021;-47
2023/07/31 03:42:41;;;;;;;5.43;1.95;;;15.50;92.70;;;;;;5073057;28;20035;-46
2023/07/31 03:45:08;;;;;;;2.78;1.65;;;15.50;92.70;;;;;;5073700;28;20024;-46
2023/07/31 03:47:35;;;;;;;2.38;1.27;;;15.50;92.80;;;;;;5073814;28;20393;-46
2023/07/31 03:50:02;;;;;;;2.55;1.58;;;15.50;92.90;;;;;;5054771;28;20772;-46
2023/07/31 03:52:28;;;;;;;3.05;1.60;;;15.50;92.90;;;;;;5055866;28;20044;-46
2023/07/31 03:54:55;;;;;;;2.45;1.50;;;15.50;93.00;;;;;;5072789;28;20064;-46
2023/07/31 03:57:22;;;;;;;3.40;1.70;;;15.50;93.00;;;;;;5073572;28;20081;-45
2023/07/31 03:59:49;;;;;;;2.83;1.50;;;15.50;93.10;;;;;;5073545;28;20028;-48
2023/07/31 04:02:16;;;;;;;2.67;1.45;;;15.50;93.10;;;;;;5073321;28;20082;-46
2023/07/31 04:04:42;;;;;;;2.92;1.60;;;15.50;93.20;;;;;;5072815;28;20016;-46
2023/07/31 04:07:09;;;;;;;2.72;1.58;;;15.50;93.20;;;;;;5073234;28;20020;-46
2023/07/31 04:09:36;;;;;;;3.50;1.60;;;15.50;93.30;;;;;;5072692;28;20094;-46
2023/07/31 04:12:03;;;;;;;3.75;1.30;;;15.50;93.40;;;;;;5055496;28;20070;-47
2023/07/31 04:14:30;;;;;;;4.10;1.55;;;15.50;93.40;;;;;;5073362;28;20021;-46
2023/07/31 04:16:57;;;;;;;2.55;1.38;;;15.50;93.40;;;;;;5073414;28;20029;-46
2023/07/31 04:19:26;;;;;;;2.10;1.20;;;15.50;93.40;;;;;;5072588;28;20488;-45
2023/07/31 04:21:57;;;;;;;2.55;1.25;;;15.50;93.50;;;;;;5073165;28;20057;-46
2023/07/31 04:24:26;;;;;;;2.40;1.25;;;15.50;93.60;;;;;;5072529;28;20032;-47
2023/07/31 04:26:56;;;;;;;2.25;1.17;;;15.50;93.70;;;;;;5073107;28;20032;-46
2023/07/31 04:29:24;;;;;;;3.45;1.15;;;15.50;93.70;;;;;;5073151;28;20028;-46
2023/07/31 04:31:50;;;;;;;1.75;1.10;;;15.40;93.70;;;;;;5072368;28;20066;-49
2023/07/31 04:34:16;;;;;;;2.92;1.02;;;15.50;93.90;;;;;;5072511;28;20044;-48
2023/07/31 04:36:45;;;;;;;3.67;1.13;;;15.50;94.00;;;;;;5054449;28;20040;-48
2023/07/31 04:39:12;;;;;;;2.35;1.20;;;15.50;94.00;;;;;;5055244;28;20020;-49
2023/07/31 04:41:39;;;;;;;2.17;1.05;;;15.50;94.00;;;;;;5069993;28;20016;-49
2023/07/31 04:44:06;;;;;;;2.30;1.20;;;15.50;94.00;;;;;;5072982;28;20416;-47
2023/07/31 04:46:33;;;;;;;2.15;0.93;;;15.50;94.00;;;;;;5072253;28;20025;-48
2023/07/31 04:49:00;;;;;;;1.85;0.80;;;15.50;94.10;;;;;;5072832;28;20029;-47
2023/07/31 04:51:27;;;;;;;1.90;0.88;;;15.50;94.10;;;;;;5072903;28;20020;-47
2023/07/31 04:53:53;;;;;;;1.67;0.80;;;15.50;94.20;;;;;;5076288;28;20032;-49
2023/07/31 04:56:18;;;;;;;1.20;0.80;;;15.50;94.20;;;;;;5076743;28;20040;-47
2023/07/31 04:58:45;;;;;;;2.95;1.40;;;15.50;94.30;;;;;;5076615;28;20021;-48
2023/07/31 05:01:14;;;;;;;3.03;1.17;;;15.50;94.30;;;;;;5075945;28;20060;-47
2023/07/31 05:03:41;;;;;;;1.60;0.90;;;15.50;94.30;;;;;;5076707;28;20024;-47
2023/07/31 05:06:07;;;;;;;1.85;1.08;;;15.60;94.40;;;;;;5076051;28;20032;-47
2023/07/31 05:08:34;;;;;;;1.67;0.80;;;15.60;94.40;;;;;;5058906;28;20036;-48
2023/07/31 05:11:01;;;;;;;3.67;1.88;;;15.60;94.40;;;;;;5075726;28;20028;-49
2023/07/31 05:13:28;;;;;;;2.40;1.20;;;15.50;94.30;;;;;;5058609;28;20043;-49
2023/07/31 05:15:57;;;;;;;2.33;0.90;;;15.50;94.50;;;;;;5075778;28;20090;-48
2023/07/31 05:18:24;;;;;;;1.92;1.00;;;15.50;94.50;;;;;;5076267;28;20029;-48
2023/07/31 05:20:49;;;;;;;2.65;1.20;;;15.50;94.40;;;;;;5058968;28;20024;-49
2023/07/31 05:23:16;;;;;;;1.40;0.80;;;15.50;94.60;;;;;;5075519;28;20513;-48
2023/07/31 05:25:45;;;;;;;1.77;1.15;;;15.50;94.50;;;;;;5075989;28;20025;-47
2023/07/31 05:28:12;;;;;;;1.92;1.30;;;15.50;94.60;;;;;;5076027;28;20036;-47
2023/07/31 05:30:39;;;;;;;3.28;1.98;;;15.50;94.50;;;;;;5076099;28;20116;-47
2023/07/31 05:33:05;;;;;;;3.03;1.80;;;15.50;94.60;;;;;;5075374;28;20489;-46
2023/07/31 05:35:32;;;;;;;2.65;1.48;;;15.50;94.60;;;;;;5075902;28;20029;-48
2023/07/31 05:37:59;;;;;;;3.33;1.75;;;15.50;94.60;;;;;;5075297;28;20030;-47
2023/07/31 05:40:27;;;;;;;2.58;1.58;;;15.60;94.80;;;;;;5075933;28;20086;-47
2023/07/31 05:42:58;;;;;;;2.63;1.63;;;15.60;94.80;;;;;;5058378;28;20040;-47
2023/07/31 05:45:25;;;;;;;3.50;1.70;;;15.60;94.80;;;;;;5075309;28;20029;-46
2023/07/31 05:47:52;;;;;;;2.83;1.73;;;15.70;94.80;;;;;;5058190;28;20032;-46
2023/07/31 05:50:20;;;;;;;2.95;1.75;;;15.70;94.70;;;;;;5075488;28;20048;-46
2023/07/31 05:52:46;;;;;;;3.22;1.75;;;15.70;94.70;;;;;;5075625;28;20058;-46
2023/07/31 05:55:13;;;;;;;3.22;2.03;;;15.70;94.70;;;;;;5074975;28;20036;-47
2023/07/31 05:57:42;;;;;;;2.35;1.50;;;15.70;94.60;;;;;;5075557;28;20024;-46
2023/07/31 06:00:10;;;;;;;5.50;1.92;;;15.70;94.70;;;;;;5075736;28;20031;-46
2023/07/31 06:02:37;;;;;;;2.38;1.38;;;15.70;94.60;;;;;;5053241;28;20029;-46
2023/07/31 06:05:05;;;;;;;2.55;1.73;;;15.70;94.50;;;;;;5055602;28;20029;-47
2023/07/31 06:07:34;;;;;;;3.05;1.83;;;15.70;94.60;;;;;;5055345;28;20025;-45
2023/07/31 06:10:04;;;;;;;7.43;3.15;;;15.70;94.60;;;;;;5055430;28;20116;-45
2023/07/31 06:12:32;;;;;;;3.80;2.90;;;15.80;94.60;;;;;;5066645;28;20036;-46
2023/07/31 06:15:06;;;;;;;5.50;2.90;;;15.80;94.60;;;;;;5075347;28;20097;-46
2023/07/31 06:17:33;;;;;;;3.58;2.90;;;15.90;94.60;;;;;;5057609;28;20040;-47
2023/07/31 06:19:59;;;;;;;4.10;2.67;;;15.90;94.80;;;;;;5075235;28;20031;-46
2023/07/31 06:22:25;;;;;;;5.13;3.10;;;15.90;94.50;;;;;;5074203;28;20021;-47
2023/07/31 06:24:52;;;;;;;5.05;2.63;;;16.00;94.70;;;;;;5057176;28;20028;-46
2023/07/31 06:27:18;;;;;;;4.28;2.80;;;16.00;94.60;;;;;;5074591;28;20128;-46
2023/07/31 06:29:48;;;;;;;3.65;2.67;;;16.00;94.40;;;;;;5074672;28;20521;-46
2023/07/31 06:32:16;;;;;;;3.25;2.20;;;16.10;94.50;;;;;;5074942;28;20162;-48
2023/07/31 06:34:45;;;;;;;2.70;1.60;;;16.00;94.30;;;;;;5056537;28;20048;-46
2023/07/31 06:37:14;;;;;;;3.30;2.08;;;16.10;94.40;;;;;;5074623;28;20025;-46
2023/07/31 06:39:41;;;;;;;3.65;2.10;;;16.10;94.50;;;;;;5074024;28;20033;-47
2023/07/31 06:42:08;;;;;;;3.42;2.00;;;16.20;94.30;;;;;;5074556;28;20429;-46
2023/07/31 06:44:35;;;;;;;3.65;2.08;;;16.20;94.30;;;;;;5073844;28;20384;-46
2023/07/31 06:47:01;;;;;;;4.00;2.28;;;16.20;94.20;;;;;;5056605;28;20399;-46
2023/07/31 06:49:30;;;;;;;2.85;1.70;;;16.20;94.20;;;;;;5074371;28;20033;-46
2023/07/31 06:51:57;;;;;;;2.80;1.95;;;16.20;94.20;;;;;;5057066;28;20029;-47
2023/07/31 06:54:26;;;;;;;2.92;1.90;;;16.20;94.00;;;;;;5073804;28;20468;-46
2023/07/31 06:56:53;;;;;;;4.15;2.45;;;16.20;94.00;;;;;;5074470;28;20361;-46
2023/07/31 06:59:22;;;;;;;3.35;1.88;;;16.30;94.10;;;;;;5073706;28;20033;-45
2023/07/31 07:01:48;;;;;;;3.50;1.80;;;16.30;93.90;;;;;;5074353;28;20024;-45
2023/07/31 07:04:15;;;;;;;3.42;1.48;;;16.30;94.00;;;;;;5074224;28;20077;-46
2023/07/31 07:06:42;;;;;;;2.30;1.50;;;16.40;93.90;;;;;;5073588;28;20089;-46
2023/07/31 07:09:09;;;;;;;2.60;1.27;;;16.40;94.00;;;;;;5074223;28;20032;-47
2023/07/31 07:11:37;;;;;;;2.83;1.38;;;16.40;93.90;;;;;;5074089;28;20162;-45
2023/07/31 07:14:04;;;;;;;2.33;1.15;;;16.50;93.60;;;;;;5070462;28;20081;-45
2023/07/31 07:16:30;;;;;;;5.68;1.63;;;16.40;93.50;;;;;;5073695;28;20457;-49
2023/07/31 07:18:56;;;;;;;2.03;1.30;;;16.40;93.60;;;;;;5055628;28;20028;-45
2023/07/31 07:21:23;;;;;;;3.60;1.42;;;16.40;93.50;;;;;;5074109;28;20039;-46
2023/07/31 07:23:49;;;;;;;2.33;1.20;;;16.50;93.60;;;;;;5073766;28;20035;-46
2023/07/31 07:26:19;;;;;;;3.05;1.15;;;16.60;93.50;;;;;;5073891;28;20024;-46
2023/07/31 07:28:48;;;;;;;4.65;0.98;;;16.50;93.40;;;;;;5073203;28;20028;-45
2023/07/31 07:31:15;;;;;;;2.63;1.33;;;16.50;93.40;;;;;;5073815;28;20028;-46
2023/07/31 07:33:42;;;;;;;2.60;1.15;;;16.40;93.20;;;;;;5073661;28;20131;-46
2023/07/31 07:36:10;;;;;;;2.53;1.00;;;16.50;93.40;;;;;;5073000;28;20028;-46
2023/07/31 07:38:41;;;;;;;1.63;0.90;;;16.50;93.40;;;;;;5073591;28;20465;-46
2023/07/31 07:41:08;;;;;;;2.13;1.00;;;16.40;93.10;;;;;;5073085;28;20031;-46
2023/07/31 07:43:34;;;;;;;1.30;0.85;;;16.50;93.40;;;;;;5073943;28;20040;-45
2023/07/31 07:46:01;;;;;;;2.30;1.25;;;16.50;93.20;;;;;;5056302;28;20113;-48
2023/07/31 07:48:26;;;;;;;2.83;1.40;;;16.50;92.80;;;;;;5073280;28;20067;-48
2023/07/31 07:50:52;;;;;;;2.78;0.93;;;16.50;92.90;;;;;;5073076;28;20052;-51
2023/07/31 07:53:19;;;;;;;2.25;1.02;;;16.50;93.00;;;;;;5055967;28;20043;-48
2023/07/31 07:55:45;;;;;;;1.50;0.82;;;16.50;93.00;;;;;;5055749;28;20119;-48
2023/07/31 07:58:12;;;;;;;2.17;1.15;;;16.60;93.20;;;;;;5072773;28;20024;-48
2023/07/31 08:00:39;;;;;;;2.65;1.20;;;16.60;92.80;;;;;;5073412;28;20017;-49
2023/07/31 08:03:06;;;;;;;2.38;1.15;;;16.50;92.90;;;;;;5051406;28;20029;-48
2023/07/31 08:05:34;;;;;;;2.33;1.25;;;16.50;93.00;;;;;;5053375;28;20103;-50
2023/07/31 08:08:04;;;;;;;3.13;1.10;;;16.50;93.10;;;;;;5058416;28;20032;-49
2023/07/31 08:10:30;;;;;;;;;;;16.50;93.10;;;;;;5073765;28;20418;-49
2023/07/31 08:12:57;;;;;;;1.60;1.00;;;16.50;93.20;;;;;;5073368;28;20582;-49
2023/07/31 08:15:24;;;;;;;2.67;1.00;;;16.40;93.30;;;;;;5073275;28;20020;-48
2023/07/31 08:17:51;;;;;;;1.83;0.90;;;16.40;93.50;;;;;;5051035;28;20466;-49
2023/07/31 08:20:20;;;;;;;1.85;1.00;;;16.40;93.00;;;;;;5053150;28;20021;-49
2023/07/31 08:22:47;;;;;;;1.67;0.82;;;16.40;93.30;;;;;;5053153;28;20040;-49
2023/07/31 08:25:13;;;;;;;2.25;0.98;;;16.30;93.20;;;;;;5044291;28;20473;-49
2023/07/31 08:27:44;;;;;;;2.72;1.13;;;16.30;93.40;;;;;;5075356;28;20040;-48
2023/07/31 08:30:12;;;;;;;2.42;1.40;;;16.40;93.60;;;;;;5077243;28;20020;-48
2023/07/31 08:32:40;;;;;;;3.40;1.10;;;16.40;93.30;;;;;;5058244;28;20027;-52
2023/07/31 08:35:07;;;;;;;1.50;0.90;;;16.40;93.40;;;;;;5077123;28;20020;-51
2023/07/31 08:37:34;;;;;;;2.35;1.10;;;16.40;93.30;;;;;;5077419;28;20178;-52
2023/07/31 08:40:01;;;;;;;2.95;1.65;;;16.40;93.10;;;;;;5077233;28;20107;-53
2023/07/31 08:42:27;;;;;;;3.30;1.20;;;16.40;93.20;;;;;;5076674;28;20025;-52
2023/07/31 08:44:56;;;;;;;2.88;1.48;;;16.40;93.30;;;;;;5076964;28;20024;-51
2023/07/31 08:47:26;;;;;;;3.53;1.70;;;16.40;92.90;;;;;;5076333;28;20783;-56
2023/07/31 08:49:54;;;;;;;2.22;1.17;;;16.40;93.00;;;;;;5077011;28;20050;-50
2023/07/31 08:52:20;;;;;;;2.50;0.98;;;16.50;93.10;;;;;;5059221;28;20028;-51
2023/07/31 08:54:47;;;;;;;3.17;1.10;;;16.60;93.10;;;;;;5076145;28;20051;-51
2023/07/31 08:57:16;;;;;;;1.70;1.00;;;16.60;93.10;;;;;;5077081;28;20361;-53
2023/07/31 08:59:44;;;;;;;;;;;16.60;93.10;;;;;;5059348;28;20476;-50
2023/07/31 09:02:13;;;;;;;2.33;1.17;;;16.70;93.10;;;;;;5076664;28;19904;-49
2023/07/31 09:04:40;;;;;;;2.40;1.00;;;16.70;93.00;;;;;;5075946;28;20013;-51
2023/07/31 09:07:09;;;;;;;2.30;1.00;;;16.70;92.70;;;;;;5076508;28;20051;-50
2023/07/31 09:09:35;;;;;;;2.27;1.40;;;16.70;92.60;;;;;;5076428;28;20039;-50
2023/07/31 09:12:03;;;;;;;4.78;1.02;;;16.60;92.60;;;;;;5076323;28;20060;-50
2023/07/31 09:14:31;;;;;;;3.15;1.00;;;16.60;92.60;;;;;;5075396;28;20060;-55
2023/07/31 09:17:01;;;;;;;2.25;1.13;;;16.50;92.60;;;;;;5075737;28;20039;-50
2023/07/31 09:19:38;;;;;;;2.10;1.00;;;16.50;92.70;;;;;;5058643;28;20337;-50
2023/07/31 09:22:07;;;;;;;2.25;1.02;;;16.50;92.90;;;;;;5075344;28;20028;-51
2023/07/31 09:24:34;;;;;;;3.42;1.30;;;16.40;92.60;;;;;;5075967;28;20491;-50
2023/07/31 09:27:05;;;;;;;2.88;1.25;;;16.40;92.40;;;;;;5076016;28;20037;-57
2023/07/31 09:29:32;;;;;;;2.80;1.30;;;16.30;92.50;;;;;;5057774;28;20036;-62
2023/07/31 09:32:01;;;;;;;2.60;1.30;;;16.30;92.50;;;;;;5075999;28;20025;-59
2023/07/31 09:34:40;;;;;;;2.35;0.90;;;16.20;92.60;;;;;;5075692;28;20127;-60
2023/07/31 09:37:09;;;;;;;2.33;1.00;;;16.20;92.80;;;;;;5074979;28;20064;-62
2023/07/31 09:39:46;;;;;;;3.10;1.17;;;16.20;93.00;;;;;;5075664;28;20020;-59
2023/07/31 09:42:14;;;;;;;2.33;1.10;;;16.30;93.10;;;;;;5058118;28;20040;-56
2023/07/31 09:44:44;;;;;;;3.25;1.35;;;16.30;93.20;;;;;;5075029;28;20033;-58
2023/07/31 09:47:26;;;;;;;3.70;1.13;;;16.40;93.10;;;;;;5075740;28;20024;-62
2023/07/31 09:49:55;;;;;;;5.90;1.33;;;16.40;93.20;;;;;;5075748;28;20343;-53
2023/07/31 09:52:22;;;;;;;3.65;1.65;;;16.50;93.10;;;;;;5074986;28;20119;-58
2023/07/31 09:54:48;;;;;;;2.15;1.13;;;16.50;93.00;;;;;;5075641;28;20040;-58
2023/07/31 09:57:17;;;;;;;1.83;0.70;;;16.50;93.10;;;;;;5075502;28;20041;-53
2023/07/31 09:59:46;;;;;;;1.83;1.00;;;16.60;92.90;;;;;;5074643;28;20357;-56
2023/07/31 10:02:19;;;;;;;3.05;1.50;;;16.60;92.70;;;;;;5075490;28;20078;-53
2023/07/31 10:04:49;;;;;;;2.67;1.00;;;16.70;92.80;;;;;;5074199;28;20024;-55
2023/07/31 10:07:18;;;;;;;2.90;1.20;;;16.60;92.40;;;;;;5058001;28;20417;-51
2023/07/31 10:09:46;;;;;;;2.28;0.98;;;16.60;92.40;;;;;;5075360;28;20024;-56
2023/07/31 10:12:18;;;;;;;4.07;1.33;;;16.60;92.40;;;;;;5074746;28;20039;-58
2023/07/31 10:14:44;;;;;;;2.90;1.20;;;16.60;92.30;;;;;;5074993;28;20450;-55
2023/07/31 10:17:15;;;;;;;3.03;1.05;;;16.60;91.90;;;;;;5056099;28;20082;-55
2023/07/31 10:19:41;;;;;;;1.63;0.90;;;16.50;92.10;;;;;;5074659;28;20083;-55
2023/07/31 10:22:09;;;;;;;2.13;0.90;;;16.50;92.20;;;;;;5051827;28;20354;-58
2023/07/31 10:24:36;;;;;;;1.95;1.00;;;16.40;92.30;;;;;;5054563;28;20402;-57
2023/07/31 10:27:04;;;;;;;4.03;1.15;;;16.40;92.60;;;;;;5054620;28;20060;-57
2023/07/31 10:29:30;;;;;;;2.35;1.30;;;16.40;92.50;;;;;;5054529;28;20445;-56
2023/07/31 10:31:59;;;;;;;3.47;1.30;;;16.40;92.60;;;;;;5068809;28;20052;-51
2023/07/31 10:34:25;;;;;;;1.65;1.08;;;16.40;92.70;;;;;;5074308;28;20068;-56
2023/07/31 10:37:24;;;;;;;2.97;1.05;;;16.40;92.80;;;;;;5056597;28;20060;-51
2023/07/31 10:40:07;;;;;;;3.37;1.40;;;16.40;92.80;;;;;;5074309;28;20063;-52
2023/07/31 10:42:44;;;;;;;2.00;1.00;;;16.40;92.90;;;;;;5073982;28;20278;-52
2023/07/31 10:45:11;;;;;;;2.40;1.13;;;16.40;92.80;;;;;;5073884;28;20047;-49
2023/07/31 10:47:39;;;;;;;2.50;1.00;;;16.30;92.70;;;;;;5074183;28;20032;-48
2023/07/31 10:50:16;;;;;;;3.25;1.42;;;16.30;93.00;;;;;;5072987;28;20032;-55
2023/07/31 10:52:54;;;;;;;1.92;1.00;;;16.30;93.10;;;;;;5074527;28;20028;-54
2023/07/31 10:55:40;;;;;;;2.60;1.02;;;16.30;93.20;;;;;;5073137;28;20029;-54
2023/07/31 10:58:19;;;;;;;1.73;0.73;;;16.20;93.00;;;;;;5074468;28;20024;-57
2023/07/31 11:00:46;;;;;;;1.90;1.00;;;16.20;93.30;;;;;;5074379;28;20023;-56
2023/07/31 11:03:51;;;;;;;2.22;0.82;;;16.20;93.50;;;;;;5073331;28;20028;-57
2023/07/31 11:06:21;;;;;;;1.55;0.70;;;16.20;93.80;;;;;;5074176;28;20491;-55
2023/07/31 11:08:51;;;;;;;3.28;1.25;;;16.40;93.90;;;;;;5074120;28;20033;-56
2023/07/31 11:11:20;;;;;;;1.52;0.73;;;16.40;93.80;;;;;;5074103;28;20024;-61
2023/07/31 11:13:54;;;;;;;2.50;1.00;;;16.40;93.90;;;;;;5056661;28;20028;-59
2023/07/31 11:16:25;;;;;;;1.20;0.60;;;16.50;93.80;;;;;;5073298;28;20024;-59
2023/07/31 11:18:53;;;;;;;5.05;0.80;;;16.40;93.50;;;;;;5074132;28;20100;-56
2023/07/31 11:21:22;;;;;;;2.13;0.63;;;16.40;93.50;;;;;;5055811;28;20033;-57
2023/07/31 11:23:53;;;;;;;1.88;0.90;;;16.40;93.80;;;;;;5074047;28;20013;-61
2023/07/31 11:26:20;;;;;;;0.73;0.50;;;16.30;94.00;;;;;;5055055;28;20036;-56
2023/07/31 11:28:49;;;;;;;2.55;0.90;;;16.40;94.10;;;;;;5073978;28;20043;-53
2023/07/31 11:31:17;;;;;;;1.33;0.60;;;16.40;94.20;;;;;;5073842;28;20104;-55
2023/07/31 11:33:43;;;;;;;3.22;0.70;;;16.40;94.20;;;;;;5073604;28;20522;-57
2023/07/31 11:36:19;;;;;;;1.13;0.50;;;16.40;94.20;;;;;;5072830;28;20118;-54
2023/07/31 11:38:47;;;;;;;1.98;0.75;;;16.30;94.30;;;;;;5073468;28;20322;-53
2023/07/31 11:41:16;;;;;;;0.70;0.40;;;16.40;94.10;;;;;;5073598;28;20110;-53
2023/07/31 11:43:48;;;;;;;1.15;0.52;;;16.40;94.00;;;;;;5072963;28;20025;-61
2023/07/31 11:46:16;;;;;;;1.45;0.52;;;16.30;94.10;;;;;;5073045;28;20618;-62
2023/07/31 11:48:43;;;;;;;1.70;0.60;;;16.40;94.30;;;;;;5073239;28;20334;-62
2023/07/31 11:51:12;;;;;;;1.33;0.55;;;16.40;94.40;;;;;;5073528;28;20024;-62
2023/07/31 11:54:00;;;;;;;1.45;0.55;;;16.40;94.20;;;;;;5072639;28;20454;-62
2023/07/31 11:56:27;;;;;;;1.13;0.60;;;16.40;94.30;;;;;;5073093;28;20050;-60
2023/07/31 11:59:02;;;;;;;0.93;0.50;;;16.40;94.30;;;;;;5073603;28;20036;-58
2023/07/31 12:01:32;;;;;;;0.73;0.40;;;16.40;94.20;;;;;;5072572;28;20040;-59
2023/07/31 12:04:00;;;;;;;1.20;0.57;;;16.40;94.40;;;;;;5073319;28;20020;-59
2023/07/31 12:06:38;;;;;;;1.42;0.70;;;16.30;94.20;;;;;;5070320;28;20024;-54
2023/07/31 12:09:05;;;;;;;1.95;0.70;;;16.40;94.50;;;;;;5073308;28;20032;-57
2023/07/31 12:11:45;;;;;;;2.03;0.40;;;16.40;94.60;;;;;;5071774;28;20441;-58
2023/07/31 12:14:30;;;;;;;1.02;0.40;;;16.40;94.30;;;;;;5073256;28;20033;-59
2023/07/31 12:17:04;;;;;;;1.15;0.50;;;16.30;94.30;;;;;;5055220;28;20032;-56
2023/07/31 12:19:31;;;;;;;1.23;0.52;;;16.40;94.60;;;;;;5073175;28;20073;-56
2023/07/31 12:21:59;;;;;;;0.68;0.32;;;16.40;94.30;;;;;;5054545;28;20035;-57
2023/07/31 12:24:27;;;;;;;1.50;0.43;;;16.50;94.50;;;;;;5072570;28;20458;-58
2023/07/31 12:26:55;;;;;;;1.92;0.57;;;16.50;94.40;;;;;;5072983;28;20059;-57
2023/07/31 12:29:20;;;;;;;2.05;0.43;;;16.50;94.40;;;;;;5073213;28;20036;-61
2023/07/31 12:31:47;;;;;;;3.50;0.80;;;16.50;94.40;;;;;;5054412;28;20025;-56
2023/07/31 12:34:18;;;;;;;3.17;1.02;;;16.50;94.40;;;;;;5072860;28;20141;-56
2023/07/31 12:36:45;;;;;;;0.70;0.38;;;16.50;94.20;;;;;;5072388;28;20045;-53
2023/07/31 12:39:12;;;;;;;1.42;0.30;;;16.50;94.10;;;;;;5072928;28;20112;-58
2023/07/31 12:41:40;;;;;;;3.90;0.75;;;16.50;94.30;;;;;;5073191;28;20032;-56
2023/07/31 12:44:07;;;;;;;3.55;0.85;;;16.70;94.60;;;;;;5073039;28;20024;-52
2023/07/31 12:46:34;;;;;;;3.42;0.60;;;16.90;94.70;;;;;;5072129;28;20173;-51
2023/07/31 12:49:02;;;;;;;0.77;0.35;;;17.10;94.40;;;;;;5072811;28;20380;-49
2023/07/31 12:51:29;;;;;;;1.83;0.50;;;17.30;94.50;;;;;;5072323;28;20099;-48
2023/07/31 12:53:56;;;;;;;2.63;0.63;;;17.40;94.40;;;;;;5072930;28;20029;-50
2023/07/31 12:56:23;;;;;;;3.97;1.45;;;17.50;94.40;;;;;;5072797;28;20040;-48